Time;durP1;ratioP1;P1;durP2;ratioP2;P2;SDS_P1;SDS_P2;PMS_P1;PMS_P2;Temp;Humidity;BMP_temperature;BMP_pressure;BME280_temperature;BME280_humidity;BME280_pressure;Samples;Min_cycle;Max_cycle;Signal;HPM_P1;HPM_P2
2022/01/14 00:00:08;;;;;;;14.30;7.78;;;;;;;-6.41;100.00;94756.81;2077091;28;20518;-82
2022/01/14 00:01:12;;;;;;;12.77;7.47;;;;;;;-6.38;100.00;94759.66;2095340;28;20017;-82
2022/01/14 00:02:14;;;;;;;14.13;7.90;;;;;;;-6.26;100.00;94758.59;2082367;28;20392;-82
2022/01/14 00:03:15;;;;;;;13.07;7.70;;;;;;;-6.19;100.00;94752.03;2074593;28;20018;-82
2022/01/14 00:04:17;;;;;;;15.18;8.00;;;;;;;-6.31;100.00;94753.41;2084122;28;20025;-82
2022/01/14 00:05:22;;;;;;;14.90;7.93;;;;;;;-6.36;100.00;94752.41;2084971;28;20061;-82
2022/01/14 00:06:27;;;;;;;12.20;7.63;;;;;;;-6.39;100.00;94758.13;2083581;28;20492;-82
2022/01/14 00:07:28;;;;;;;12.13;7.63;;;;;;;-6.48;100.00;94753.75;2075684;28;20095;-81
2022/01/14 00:08:30;;;;;;;12.52;7.68;;;;;;;-6.43;100.00;94745.91;2077141;28;20495;-82
2022/01/14 00:09:33;;;;;;;17.17;7.90;;;;;;;-6.42;100.00;94744.88;2078747;28;20045;-82
2022/01/14 00:10:37;;;;;;;14.20;7.95;;;;;;;-6.40;100.00;94750.59;2073109;28;20030;-81
2022/01/14 00:11:50;;;;;;;15.05;8.18;;;;;;;-6.37;100.00;94748.22;2071849;28;20026;-82
2022/01/14 00:12:58;;;;;;;12.73;7.13;;;;;;;-6.30;100.00;94747.94;2081424;28;20025;-82
2022/01/14 00:15:40;;;;;;;10.85;6.78;;;;;;;-6.46;100.00;94751.66;2083388;28;20017;-82
2022/01/14 00:16:34;;;;;;;12.80;7.10;;;;;;;-6.44;100.00;94745.16;2094897;28;20044;-82
2022/01/14 00:17:35;;;;;;;13.52;7.60;;;;;;;-6.44;100.00;94746.97;2085277;28;20030;-82
2022/01/14 00:18:36;;;;;;;11.00;6.82;;;;;;;-6.44;100.00;94746.97;2075950;28;20029;-82
2022/01/14 00:19:38;;;;;;;14.05;7.75;;;;;;;-6.44;100.00;94746.97;2068919;28;20412;-81
2022/01/14 00:20:45;;;;;;;12.68;7.15;;;;;;;-6.43;100.00;94759.69;2079155;28;20486;-81
2022/01/14 00:21:46;;;;;;;12.93;7.40;;;;;;;-6.46;100.00;94754.25;2082676;28;20115;-82
2022/01/14 00:22:48;;;;;;;13.05;7.25;;;;;;;-6.48;100.00;94740.75;2095934;28;20428;-81
2022/01/14 00:23:52;;;;;;;13.80;7.57;;;;;;;-6.41;100.00;94751.63;2094760;28;20099;-82
2022/01/14 00:32:57;;;;;;;11.05;6.82;;;;;;;-6.34;100.00;94745.09;2087732;28;20021;-81
2022/01/14 00:33:56;;;;;;;11.80;6.50;;;;;;;-6.33;100.00;94738.06;2090448;28;20377;-82
2022/01/14 00:34:57;;;;;;;12.25;7.72;;;;;;;-6.32;100.00;94737.03;2088663;28;20016;-81
2022/01/14 00:35:59;;;;;;;11.65;6.95;;;;;;;-6.35;100.00;94740.94;2085742;28;20018;-81
2022/01/14 00:37:03;;;;;;;13.32;6.85;;;;;;;-6.30;100.00;94741.94;2089627;28;20025;-81
2022/01/14 00:38:07;;;;;;;12.70;7.00;;;;;;;-6.33;100.00;94740.66;2089878;28;20094;-81
2022/01/14 00:39:11;;;;;;;12.48;7.25;;;;;;;-6.34;100.00;94736.50;2089994;28;20028;-81
2022/01/14 00:40:18;;;;;;;13.50;7.57;;;;;;;-6.35;100.00;94740.94;2095783;28;20020;-83
2022/01/14 00:41:24;;;;;;;11.65;6.88;;;;;;;-6.45;100.00;94729.78;2098628;28;20052;-83
2022/01/14 00:42:29;;;;;;;11.65;6.60;;;;;;;-6.39;100.00;94744.34;2097174;28;20135;-83
2022/01/14 00:43:34;;;;;;;11.95;6.55;;;;;;;-6.37;100.00;94744.84;2080425;28;20017;-81
2022/01/14 00:44:36;;;;;;;13.10;7.43;;;;;;;-6.36;100.00;94746.41;2078893;28;20036;-83
2022/01/14 00:45:43;;;;;;;11.07;6.80;;;;;;;-6.35;100.00;94740.94;2097145;28;20085;-83
2022/01/14 00:46:46;;;;;;;11.82;6.70;;;;;;;-6.37;100.00;94737.81;2088352;28;20052;-83
2022/01/14 00:47:48;;;;;;;11.88;7.30;;;;;;;-6.36;100.00;94744.59;2079659;28;20107;-82
2022/01/14 00:48:50;;;;;;;10.30;6.25;;;;;;;-6.37;100.00;94744.84;2081610;28;20532;-82
2022/01/14 00:49:51;;;;;;;12.48;7.43;;;;;;;-6.39;100.00;94739.91;2095413;28;20028;-81
2022/01/14 00:50:52;;;;;;;9.05;6.50;;;;;;;-6.45;100.00;94745.41;2090276;28;20090;-82
2022/01/14 00:51:56;;;;;;;13.57;6.85;;;;;;;-6.46;100.00;94746.44;2082501;28;20026;-82
2022/01/14 00:52:57;;;;;;;12.77;6.55;;;;;;;-6.43;100.00;94746.69;2081085;28;20025;-82
2022/01/14 00:53:58;;;;;;;11.50;6.93;;;;;;;-6.43;100.00;94740.72;2088702;28;20512;-82
2022/01/14 00:54:59;;;;;;;12.43;6.88;;;;;;;-6.50;100.00;94741.00;2087437;28;20059;-82
2022/01/14 00:56:08;;;;;;;13.45;6.43;;;;;;;-6.45;100.00;94740.19;2090775;28;20052;-82
2022/01/14 00:59:31;;;;;;;8.38;5.45;;;;;;;-6.46;100.00;94741.25;2096523;28;20040;-82
2022/01/14 01:00:34;;;;;;;8.85;5.57;;;;;;;-6.50;100.00;94735.81;2095380;28;20040;-82
2022/01/14 01:01:38;;;;;;;11.05;6.10;;;;;;;-6.51;100.00;94747.25;2089343;28;20552;-82
2022/01/14 01:02:39;;;;;;;10.88;6.05;;;;;;;-6.48;100.00;94744.13;2082385;28;20025;-82
2022/01/14 01:03:41;;;;;;;8.75;5.03;;;;;;;-6.43;100.00;94743.31;2085017;28;20411;-82
2022/01/14 01:04:41;;;;;;;8.70;5.05;;;;;;;-6.41;100.00;94744.63;2080851;28;20179;-82
2022/01/14 01:05:42;;;;;;;8.60;5.30;;;;;;;-6.46;100.00;94749.81;2087125;28;20025;-82
2022/01/14 01:06:44;;;;;;;11.85;6.03;;;;;;;-6.41;100.00;94743.81;2089091;28;20031;-82
2022/01/14 01:07:56;;;;;;;8.25;5.60;;;;;;;-6.50;100.00;94748.81;2099359;28;20032;-82
2022/01/14 01:09:00;;;;;;;10.07;4.90;;;;;;;-6.49;100.00;94752.22;2095412;28;20078;-82
2022/01/14 01:10:05;;;;;;;10.18;4.57;;;;;;;-6.54;100.00;94747.00;2081732;28;20395;-82
2022/01/14 01:11:11;;;;;;;10.65;4.78;;;;;;;-6.50;100.00;94743.59;2088047;28;20029;-82
2022/01/14 01:12:32;;;;;;;8.13;4.70;;;;;;;-6.41;100.00;94744.63;2089670;28;20017;-81
2022/01/14 01:13:37;;;;;;;6.80;4.38;;;;;;;-6.54;100.00;94736.59;2095752;28;20069;-82
2022/01/14 01:14:46;;;;;;;8.50;4.32;;;;;;;-6.47;100.00;94739.69;2096154;28;20035;-82
2022/01/14 01:15:54;;;;;;;8.02;4.70;;;;;;;-6.43;100.00;94746.69;2098426;28;20040;-82
2022/01/14 01:16:58;;;;;;;8.20;4.78;;;;;;;-6.43;100.00;94738.13;2094235;28;20114;-82
2022/01/14 01:17:59;;;;;;;8.48;4.00;;;;;;;-6.41;100.00;94730.81;2093233;28;20460;-81
2022/01/14 01:19:00;;;;;;;8.45;4.03;;;;;;;-6.43;100.00;94732.91;2080596;28;20028;-82
2022/01/14 01:20:17;;;;;;;10.45;4.88;;;;;;;-6.46;100.00;94731.63;2087037;28;20151;-82
2022/01/14 01:21:18;;;;;;;7.85;4.30;;;;;;;-6.47;100.00;94731.91;2088583;28;20053;-83
2022/01/14 01:22:21;;;;;;;6.72;4.00;;;;;;;-6.47;100.00;94729.28;2082844;28;20344;-83
2022/01/14 01:23:22;;;;;;;5.75;4.05;;;;;;;-6.49;100.00;94729.56;2082532;28;20372;-82
2022/01/14 01:24:23;;;;;;;6.90;3.83;;;;;;;-6.47;100.00;94721.50;2098262;28;20027;-83
2022/01/14 01:25:30;;;;;;;8.73;4.20;;;;;;;-6.54;100.00;94723.59;2095668;28;20385;-82
2022/01/14 01:26:35;;;;;;;9.60;3.85;;;;;;;-6.40;100.00;94730.56;2097273;28;20416;-82
2022/01/14 01:27:41;;;;;;;7.97;3.60;;;;;;;-6.38;100.00;94725.84;2099386;28;20039;-83
2022/01/14 01:28:58;;;;;;;6.55;4.00;;;;;;;-6.38;100.00;94723.25;2097225;28;20048;-82
2022/01/14 01:30:13;;;;;;;5.82;3.50;;;;;;;-6.46;100.00;94726.41;2087123;28;20021;-82
2022/01/14 01:32:33;;;;;;;5.75;3.95;;;;;;;-6.44;100.00;94728.78;2089738;28;20038;-82
2022/01/14 01:33:38;;;;;;;6.70;3.63;;;;;;;-6.39;100.00;94728.72;2085644;28;20025;-82
2022/01/14 01:34:40;;;;;;;6.53;3.70;;;;;;;-6.44;100.00;94733.97;2081820;28;20108;-82
2022/01/14 01:35:46;;;;;;;4.57;3.50;;;;;;;-6.55;100.00;94738.44;2087536;28;20040;-82
2022/01/14 01:36:52;;;;;;;6.75;3.95;;;;;;;-6.61;100.00;94735.09;2088957;28;20079;-81
2022/01/14 01:37:58;;;;;;;5.30;3.30;;;;;;;-6.56;100.00;94736.09;2090302;28;20052;-82
2022/01/14 01:39:05;;;;;;;6.47;3.28;;;;;;;-6.63;100.00;94734.59;2091110;28;20410;-81
2022/01/14 01:40:14;;;;;;;7.50;3.85;;;;;;;-6.62;100.00;94735.38;2084359;28;20047;-82
2022/01/14 01:41:23;;;;;;;4.20;2.90;;;;;;;-6.57;100.00;94731.97;2081195;28;20060;-82
2022/01/14 01:42:28;;;;;;;5.53;2.92;;;;;;;-6.63;100.00;94737.19;2084234;28;20202;-82
2022/01/14 01:43:30;;;;;;;4.60;3.15;;;;;;;-6.61;100.00;94732.50;2080227;28;20117;-82
2022/01/14 01:44:34;;;;;;;5.28;2.97;;;;;;;-6.63;100.00;94733.78;2082808;28;20201;-82
2022/01/14 01:45:38;;;;;;;6.25;3.35;;;;;;;-6.61;100.00;94740.28;2087931;28;20028;-81
2022/01/14 01:46:43;;;;;;;9.00;2.97;;;;;;;-6.59;100.00;94738.19;2089972;28;20016;-82
2022/01/14 01:47:50;;;;;;;6.47;3.15;;;;;;;-6.55;100.00;94735.84;2081503;28;20022;-82
2022/01/14 01:48:52;;;;;;;6.63;3.25;;;;;;;-6.54;100.00;94737.41;2079788;28;20018;-82
2022/01/14 01:49:53;;;;;;;4.00;3.10;;;;;;;-6.57;100.00;94737.16;2078600;28;20099;-82
2022/01/14 01:50:54;;;;;;;5.32;3.22;;;;;;;-6.56;100.00;94736.88;2086474;28;20024;-82
2022/01/14 01:51:56;;;;;;;5.95;3.20;;;;;;;-6.56;100.00;94734.28;2078265;28;20049;-82
2022/01/14 01:52:57;;;;;;;4.88;2.70;;;;;;;-6.45;100.00;94735.78;2086958;28;20125;-82
2022/01/14 01:53:58;;;;;;;7.30;2.80;;;;;;;-6.47;100.00;94737.88;2093057;28;20024;-82
2022/01/14 01:54:59;;;;;;;4.43;2.78;;;;;;;-6.50;100.00;94737.63;2082342;28;20633;-82
2022/01/14 01:56:00;;;;;;;4.82;3.20;;;;;;;-6.48;100.00;94733.72;2080352;28;20051;-82
2022/01/14 01:57:02;;;;;;;8.60;3.83;;;;;;;-6.47;100.00;94735.28;2094932;28;20035;-82
2022/01/14 01:58:03;;;;;;;6.13;3.35;;;;;;;-6.46;100.00;94738.66;2086255;28;21541;-82
2022/01/14 01:59:05;;;;;;;4.75;2.97;;;;;;;-6.43;100.00;94743.31;2077979;28;20040;-82
2022/01/14 02:00:09;;;;;;;6.70;3.22;;;;;;;-6.47;100.00;94740.47;2086465;28;20059;-82
2022/01/14 02:01:11;;;;;;;5.45;3.20;;;;;;;-6.45;100.00;94741.00;2080466;28;20193;-82
2022/01/14 02:02:12;;;;;;;6.95;3.28;;;;;;;-6.49;100.00;94747.78;2080977;28;20048;-82
2022/01/14 02:03:13;;;;;;;6.80;3.20;;;;;;;-6.43;100.00;94749.28;2082999;28;20013;-82
2022/01/14 02:04:14;;;;;;;6.93;3.03;;;;;;;-6.45;100.00;94748.00;2078856;28;20663;-82
2022/01/14 02:05:16;;;;;;;6.28;3.17;;;;;;;-6.48;100.00;94740.75;2084258;28;20271;-81
2022/01/14 02:06:19;;;;;;;6.18;2.90;;;;;;;-6.51;100.00;94742.06;2084674;28;20041;-82
2022/01/14 02:07:20;;;;;;;8.45;3.10;;;;;;;-6.50;100.00;94748.03;2089913;28;20013;-82
2022/01/14 02:10:19;;;;;;;;;;;;;;;-6.54;100.00;94744.41;2142604;27;20141;-80
2022/01/14 02:11:20;;;;;;;5.68;2.83;;;;;;;-6.56;100.00;94739.47;2125514;27;19911;-81
2022/01/14 02:12:22;;;;;;;4.78;2.97;;;;;;;-6.63;100.00;94742.38;2115669;27;20042;-80
2022/01/14 02:13:37;;;;;;;5.13;3.17;;;;;;;-6.73;100.00;94737.22;2116532;28;20092;-82
2022/01/14 02:14:54;;;;;;;6.35;2.88;;;;;;;-6.64;100.00;94743.41;2116856;27;20031;-83
2022/01/14 02:16:17;;;;;;;5.68;2.72;;;;;;;-6.63;100.00;94732.00;2129907;27;20027;-83
2022/01/14 02:17:46;;;;;;;5.10;2.50;;;;;;;-6.67;100.00;94725.75;2118759;28;20028;-83
2022/01/14 02:19:15;;;;;;;3.97;2.30;;;;;;;-6.73;100.00;94736.44;2131881;27;20025;-83
2022/01/14 02:22:57;;;;;;;5.75;2.90;;;;;;;-6.69;100.00;94722.66;2133051;27;20379;-83
2022/01/14 02:24:19;;;;;;;8.43;4.00;;;;;;;-6.65;100.00;94728.88;2115348;27;20024;-83
2022/01/14 02:25:28;;;;;;;4.45;2.58;;;;;;;-6.62;100.00;94722.38;2130796;27;20113;-83
2022/01/14 02:26:29;;;;;;;5.65;2.47;;;;;;;-6.48;100.00;94719.94;2125798;27;20038;-83
2022/01/14 02:27:30;;;;;;;5.45;2.70;;;;;;;-6.49;100.00;94715.78;2114327;28;20019;-83
2022/01/14 02:28:31;;;;;;;4.10;2.75;;;;;;;-6.54;100.00;94715.81;2112787;28;20015;-83
2022/01/14 02:29:33;;;;;;;3.72;1.90;;;;;;;-6.48;100.00;94718.13;2114037;28;20019;-83
2022/01/14 02:30:39;;;;;;;6.47;2.97;;;;;;;-6.46;100.00;94713.41;2115946;28;20032;-83
2022/01/14 02:31:41;;;;;;;4.72;2.60;;;;;;;-6.54;100.00;94718.41;2115108;28;20015;-84
2022/01/14 02:32:42;;;;;;;4.90;2.47;;;;;;;-6.53;100.00;94714.78;2108295;28;20119;-84
2022/01/14 02:33:44;;;;;;;4.80;2.30;;;;;;;-6.49;100.00;94718.41;2104076;28;20039;-84
2022/01/14 02:34:45;;;;;;;4.20;2.58;;;;;;;-6.47;100.00;94711.88;2104669;28;20083;-84
2022/01/14 02:35:48;;;;;;;5.50;2.85;;;;;;;-6.55;100.00;94715.03;2104338;28;20519;-84
2022/01/14 02:36:53;;;;;;;6.85;2.97;;;;;;;-6.52;100.00;94713.72;2121152;28;20027;-84
2022/01/14 02:37:57;;;;;;;7.53;3.10;;;;;;;-6.48;100.00;94712.91;2112164;28;20032;-84
2022/01/14 02:39:01;;;;;;;6.03;2.92;;;;;;;-6.52;100.00;94714.50;2113050;28;20115;-84
2022/01/14 02:40:05;;;;;;;4.57;2.55;;;;;;;-6.57;100.00;94711.16;2105485;28;20020;-84
2022/01/14 02:41:15;;;;;;;4.07;2.45;;;;;;;-6.66;100.00;94714.31;2121099;28;20031;-84
2022/01/14 02:42:23;;;;;;;4.00;2.88;;;;;;;-6.61;100.00;94708.31;2107182;28;20362;-84
2022/01/14 02:43:34;;;;;;;4.22;2.63;;;;;;;-6.51;100.00;94700.44;2106520;28;20051;-84
2022/01/14 02:44:42;;;;;;;3.58;2.30;;;;;;;-6.50;100.00;94701.22;2115612;27;20074;-84
2022/01/14 02:45:56;;;;;;;5.05;2.60;;;;;;;-6.55;100.00;94706.44;2113576;28;20085;-84
2022/01/14 02:47:05;;;;;;;3.55;2.95;;;;;;;-6.60;100.00;94702.84;2107612;28;20139;-84
2022/01/14 02:48:11;;;;;;;4.50;2.70;;;;;;;-6.60;100.00;94704.66;2107209;27;20032;-84
2022/01/14 02:49:14;;;;;;;6.57;3.05;;;;;;;-6.51;100.00;94699.66;2130456;27;20039;-84
2022/01/14 02:50:22;;;;;;;4.63;2.92;;;;;;;-6.54;100.00;94700.19;2121016;28;20026;-84
2022/01/14 02:51:26;;;;;;;5.20;3.00;;;;;;;-6.53;100.00;94701.78;2113647;28;20473;-84
2022/01/14 02:52:42;;;;;;;3.75;2.70;;;;;;;-6.58;100.00;94697.38;2120866;28;20462;-84
2022/01/14 02:53:56;;;;;;;4.22;2.58;;;;;;;-6.41;100.00;94702.19;2123207;27;20058;-84
2022/01/14 02:55:15;;;;;;;4.57;3.08;;;;;;;-6.38;100.00;94699.84;2129566;27;20026;-84
2022/01/14 02:56:21;;;;;;;4.68;3.05;;;;;;;-6.40;100.00;94701.19;2125793;27;20154;-84
2022/01/14 02:57:25;;;;;;;5.07;3.40;;;;;;;-6.51;100.00;94684.84;2129500;27;20102;-84
2022/01/14 02:58:31;;;;;;;5.35;3.08;;;;;;;-6.51;100.00;94690.03;2113029;28;20473;-83
2022/01/14 03:03:45;;;;;;;6.53;2.83;;;;;;;-6.66;100.00;94693.50;2117966;27;20115;-84
2022/01/14 03:04:46;;;;;;;5.95;2.83;;;;;;;-6.47;100.00;94687.69;2120906;28;20084;-83
2022/01/14 03:05:49;;;;;;;4.50;2.83;;;;;;;-6.52;100.00;94687.72;2112382;28;20492;-84
2022/01/14 03:06:51;;;;;;;6.15;3.13;;;;;;;-6.56;100.00;94686.69;2112042;28;20027;-84
2022/01/14 03:07:53;;;;;;;6.03;2.92;;;;;;;-6.67;100.00;94691.16;2103105;28;20059;-83
2022/01/14 03:08:56;;;;;;;5.93;2.88;;;;;;;-6.60;100.00;94687.22;2112632;28;20020;-84
2022/01/14 03:09:57;;;;;;;5.45;2.97;;;;;;;-6.46;100.00;94684.03;2112400;28;20516;-84
2022/01/14 03:11:03;;;;;;;4.00;2.90;;;;;;;-6.54;100.00;94684.59;2111974;28;20051;-84
2022/01/14 03:12:04;;;;;;;5.43;2.67;;;;;;;-6.61;100.00;94684.91;2105077;28;20024;-84
2022/01/14 03:13:05;;;;;;;5.32;3.22;;;;;;;-6.66;100.00;94679.75;2120789;28;20077;-84
2022/01/14 03:14:09;;;;;;;4.57;2.80;;;;;;;-6.66;100.00;94677.13;2125205;27;20049;-84
2022/01/14 03:15:20;;;;;;;5.65;2.90;;;;;;;-6.70;100.00;94676.91;2113345;28;20108;-84
2022/01/14 03:16:21;;;;;;;4.35;3.05;;;;;;;-6.69;100.00;94675.84;2104190;28;20028;-84
2022/01/14 03:17:22;;;;;;;6.32;2.58;;;;;;;-6.69;100.00;94675.06;2098472;28;20024;-84
2022/01/14 03:18:33;;;;;;;4.60;2.70;;;;;;;-6.70;100.00;94673.53;2109470;28;20020;-84
2022/01/14 03:19:38;;;;;;;8.32;2.70;;;;;;;-6.64;100.00;94672.44;2109596;28;20428;-84
2022/01/14 03:21:01;;;;;;;6.07;2.97;;;;;;;-6.57;100.00;94672.94;2112441;28;20028;-84
2022/01/14 03:22:17;;;;;;;5.10;2.47;;;;;;;-6.64;100.00;94675.03;2123856;27;20030;-84
2022/01/14 03:23:19;;;;;;;7.53;3.22;;;;;;;-6.58;100.00;94673.97;2110224;27;20019;-84
2022/01/14 03:24:23;;;;;;;3.70;2.60;;;;;;;-6.67;100.00;94675.56;2106985;28;20409;-84
2022/01/14 03:26:45;;;;;;;4.15;2.33;;;;;;;-6.70;100.00;94674.28;2103276;28;20027;-83
2022/01/14 03:27:46;;;;;;;5.15;2.53;;;;;;;-6.70;100.00;94671.69;2098404;28;20036;-83
2022/01/14 03:28:48;;;;;;;5.35;3.00;;;;;;;-6.74;100.00;94675.09;2098661;28;20029;-84
2022/01/14 03:29:54;;;;;;;5.18;2.42;;;;;;;-6.70;100.00;94678.72;2098350;28;20072;-84
2022/01/14 03:31:00;;;;;;;4.82;2.92;;;;;;;-6.63;100.00;94668.78;2106271;28;20069;-84
2022/01/14 03:32:03;;;;;;;3.80;2.15;;;;;;;-6.63;100.00;94671.38;2107151;28;20642;-84
2022/01/14 03:33:05;;;;;;;3.42;2.30;;;;;;;-6.65;100.00;94671.66;2103158;28;20147;-84
2022/01/14 03:34:10;;;;;;;3.95;2.05;;;;;;;-6.63;100.00;94668.78;2098656;28;20024;-83
2022/01/14 03:35:12;;;;;;;3.95;2.28;;;;;;;-6.64;100.00;94669.84;2098887;28;20028;-84
2022/01/14 03:36:20;;;;;;;4.70;2.10;;;;;;;-6.64;100.00;94682.84;2098566;28;20016;-83
2022/01/14 03:37:21;;;;;;;5.20;2.22;;;;;;;-6.66;100.00;94677.13;2105672;28;20020;-84
2022/01/14 03:38:24;;;;;;;4.03;2.30;;;;;;;-6.64;100.00;94677.63;2106620;28;20428;-84
2022/01/14 03:39:28;;;;;;;5.25;2.13;;;;;;;-6.64;100.00;94683.63;2101227;28;20087;-84
2022/01/14 03:40:30;;;;;;;4.88;2.13;;;;;;;-6.69;100.00;94678.44;2106945;28;20091;-84
2022/01/14 03:41:31;;;;;;;5.93;2.35;;;;;;;-6.53;100.00;94679.16;2106939;28;20023;-83
2022/01/14 03:42:37;;;;;;;3.95;1.92;;;;;;;-6.46;100.00;94681.44;2102287;28;20111;-83
2022/01/14 03:43:40;;;;;;;4.28;1.83;;;;;;;-6.63;100.00;94674.78;2110582;28;20031;-84
2022/01/14 03:44:41;;;;;;;4.68;2.35;;;;;;;-6.67;100.00;94684.16;2109800;28;20088;-84
2022/01/14 03:45:42;;;;;;;4.40;2.22;;;;;;;-6.70;100.00;94686.53;2103538;28;20061;-84
2022/01/14 03:46:44;;;;;;;2.70;1.80;;;;;;;-6.70;100.00;94684.69;2090154;28;20025;-84
2022/01/14 03:47:45;;;;;;;4.70;2.03;;;;;;;-6.70;100.00;94686.53;2106853;27;20036;-83
2022/01/14 03:48:46;;;;;;;5.70;2.30;;;;;;;-6.70;100.00;94686.53;2106346;28;20094;-83
2022/01/14 03:49:47;;;;;;;4.07;2.00;;;;;;;-6.73;100.00;94695.63;2098018;28;20787;-83
2022/01/14 03:50:48;;;;;;;6.40;2.33;;;;;;;-6.76;100.00;94693.56;2106584;28;20031;-83
2022/01/14 03:51:49;;;;;;;7.07;2.28;;;;;;;-6.77;100.00;94694.59;2098172;28;20025;-83
2022/01/14 03:52:50;;;;;;;2.38;1.60;;;;;;;-6.78;100.00;94692.28;2106409;28;20081;-83
2022/01/14 03:53:51;;;;;;;5.53;1.90;;;;;;;-6.90;100.00;94692.59;2115042;28;20073;-83
2022/01/14 03:54:51;;;;;;;4.78;2.35;;;;;;;-6.89;100.00;94689.72;2098122;28;20357;-83
2022/01/14 03:55:52;;;;;;;6.07;2.17;;;;;;;-6.92;100.00;94694.69;2098167;28;20059;-83
2022/01/14 03:56:53;;;;;;;4.05;1.83;;;;;;;-6.79;100.00;94695.94;2097948;28;20064;-83
2022/01/14 03:57:54;;;;;;;4.18;2.10;;;;;;;-6.80;100.00;94697.75;2105252;28;20020;-83
2022/01/14 03:59:03;;;;;;;4.97;1.83;;;;;;;-6.79;100.00;94688.91;2098167;28;20030;-84
2022/01/14 04:00:11;;;;;;;4.75;1.83;;;;;;;-6.80;100.00;94692.56;2099247;28;20068;-84
2022/01/14 04:01:19;;;;;;;2.65;1.75;;;;;;;-6.74;100.00;94688.88;2099127;28;20558;-84
2022/01/14 04:02:20;;;;;;;3.33;1.52;;;;;;;-6.74;100.00;94688.09;2091744;28;20047;-83
2022/01/14 04:03:21;;;;;;;4.85;1.40;;;;;;;-6.77;100.00;94683.44;2092475;28;20021;-83
2022/01/14 04:04:22;;;;;;;5.20;1.65;;;;;;;-6.77;100.00;94686.03;2103485;28;20091;-84
2022/01/14 04:05:23;;;;;;;6.20;1.92;;;;;;;-6.77;100.00;94680.81;2098008;28;20925;-84
2022/01/14 04:06:24;;;;;;;2.33;1.30;;;;;;;-6.78;100.00;94680.06;2111836;28;20035;-84
2022/01/14 04:07:25;;;;;;;2.58;1.55;;;;;;;-6.77;100.00;94678.22;2102019;28;20024;-83
2022/01/14 04:08:26;;;;;;;4.28;2.00;;;;;;;-6.74;100.00;94675.09;2102044;28;20020;-83
2022/01/14 04:09:27;;;;;;;2.67;2.03;;;;;;;-6.77;100.00;94684.19;2092331;28;20119;-83
2022/01/14 04:10:28;;;;;;;2.53;2.00;;;;;;;-6.74;100.00;94681.06;2097925;28;20043;-83
2022/01/14 04:11:30;;;;;;;4.13;2.30;;;;;;;-6.74;100.00;94675.88;2096800;28;20469;-83
2022/01/14 04:13:17;;;;;;;4.13;2.80;;;;;;;-6.72;100.00;94673.00;2097035;28;20189;-83
2022/01/14 04:14:06;;;;;;;3.38;1.85;;;;;;;-6.71;100.00;94674.56;2099273;28;20100;-83
2022/01/14 04:16:27;;;;;;;;;;;;;;;-6.67;100.00;94667.75;2106847;28;20024;-83
2022/01/14 04:17:29;;;;;;;4.00;2.30;;;;;;;-6.66;100.00;94671.94;2097636;28;19982;-84
2022/01/14 04:18:30;;;;;;;5.85;2.30;;;;;;;-6.70;100.00;94669.09;2097866;28;20477;-84
2022/01/14 04:19:31;;;;;;;4.35;2.60;;;;;;;-6.66;100.00;94671.94;2097665;28;20024;-83
2022/01/14 04:20:33;;;;;;;4.03;1.88;;;;;;;-6.54;100.00;94663.78;2097512;28;20027;-84
2022/01/14 04:21:34;;;;;;;3.78;2.17;;;;;;;-6.60;100.00;94669.03;2093811;28;20033;-84
2022/01/14 04:22:36;;;;;;;3.35;2.40;;;;;;;-6.64;100.00;94670.59;2089352;28;20059;-84
2022/01/14 04:23:37;;;;;;;5.05;2.08;;;;;;;-6.64;100.00;94656.84;2098148;28;20047;-84
2022/01/14 04:24:38;;;;;;;3.60;2.60;;;;;;;-6.63;100.00;94661.78;2089557;28;20021;-84
2022/01/14 04:25:40;;;;;;;3.42;2.60;;;;;;;-6.69;100.00;94657.66;2105700;28;20062;-83
2022/01/14 04:26:41;;;;;;;3.28;2.30;;;;;;;-6.75;100.00;94658.72;2095656;28;20528;-83
2022/01/14 04:27:42;;;;;;;3.90;2.63;;;;;;;-6.73;100.00;94655.84;2085782;28;20025;-84
2022/01/14 04:28:43;;;;;;;5.72;2.60;;;;;;;-6.66;100.00;94656.34;2088578;28;20112;-83
2022/01/14 04:29:44;;;;;;;4.80;2.55;;;;;;;-6.66;100.00;94656.34;2092196;28;20021;-83
2022/01/14 04:30:45;;;;;;;2.97;2.40;;;;;;;-6.66;100.00;94659.72;2094996;28;20033;-83
2022/01/14 04:31:47;;;;;;;4.72;2.45;;;;;;;-6.66;100.00;94651.16;2088329;28;20029;-83
2022/01/14 04:32:48;;;;;;;2.50;2.30;;;;;;;-6.71;100.00;94653.78;2096142;28;20029;-82
2022/01/14 04:33:49;;;;;;;3.67;2.22;;;;;;;-6.69;100.00;94644.66;2096770;28;20059;-83
2022/01/14 04:34:50;;;;;;;2.60;2.40;;;;;;;-6.62;100.00;94652.16;2105883;28;20055;-83
2022/01/14 04:35:54;;;;;;;3.60;2.40;;;;;;;-6.80;100.00;94652.75;2104049;28;20481;-83
2022/01/14 04:36:55;;;;;;;3.63;2.38;;;;;;;-6.72;100.00;94655.56;2105967;28;20020;-83
2022/01/14 04:37:57;;;;;;;2.35;2.00;;;;;;;-6.71;100.00;94643.38;2113269;28;20032;-83
2022/01/14 04:38:58;;;;;;;2.10;1.80;;;;;;;-6.71;100.00;94649.34;2097616;28;20059;-83
2022/01/14 04:39:59;;;;;;;2.35;1.95;;;;;;;-6.70;100.00;94653.50;2093277;28;20028;-83
2022/01/14 04:41:01;;;;;;;4.35;2.15;;;;;;;-6.70;100.00;94652.72;2105893;28;20055;-83
2022/01/14 04:42:03;;;;;;;4.07;1.95;;;;;;;-6.69;100.00;94649.84;2093594;28;20155;-83
2022/01/14 04:43:05;;;;;;;2.60;2.10;;;;;;;-6.64;100.00;94649.81;2089377;28;20051;-83
2022/01/14 04:44:06;;;;;;;2.75;2.22;;;;;;;-6.66;100.00;94638.91;2089398;28;20031;-84
2022/01/14 04:45:10;;;;;;;2.55;2.20;;;;;;;-6.68;100.00;94642.81;2089315;28;20036;-84
2022/01/14 04:47:18;;;;;;;4.53;2.58;;;;;;;-6.75;100.00;94634.56;2106325;28;20118;-84
2022/01/14 04:48:21;;;;;;;3.72;2.10;;;;;;;-6.72;100.00;94629.56;2106012;28;20080;-84
2022/01/14 04:49:22;;;;;;;7.22;2.25;;;;;;;-6.67;100.00;94639.97;2097978;28;20097;-84
2022/01/14 04:50:25;;;;;;;2.63;2.00;;;;;;;-6.68;100.00;94632.41;2112926;28;20100;-83
2022/01/14 04:51:26;;;;;;;5.43;2.28;;;;;;;-6.71;100.00;94635.56;2114000;28;20027;-83
2022/01/14 04:52:28;;;;;;;2.92;2.05;;;;;;;-6.62;100.00;94626.16;2097641;28;20116;-84
2022/01/14 04:53:29;;;;;;;4.50;2.85;;;;;;;-6.68;100.00;94629.81;2089969;28;20025;-83
2022/01/14 04:54:31;;;;;;;3.60;2.25;;;;;;;-6.69;100.00;94630.88;2105845;28;20020;-84
2022/01/14 04:55:32;;;;;;;3.17;2.50;;;;;;;-6.73;100.00;94635.06;2097724;28;20143;-83
2022/01/14 04:56:33;;;;;;;3.17;2.50;;;;;;;-6.75;100.00;94627.53;2089509;28;20052;-84
2022/01/14 04:57:34;;;;;;;4.90;2.53;;;;;;;-6.79;100.00;94628.34;2081045;28;20112;-84
2022/01/14 04:58:35;;;;;;;3.30;2.25;;;;;;;-6.69;100.00;94621.25;2081080;28;20029;-84
2022/01/14 04:59:36;;;;;;;2.85;2.33;;;;;;;-6.74;100.00;94629.09;2081259;28;20030;-85
2022/01/14 05:00:38;;;;;;;4.38;2.50;;;;;;;-6.76;100.00;94626.00;2089361;28;20498;-84
2022/01/14 05:01:39;;;;;;;3.25;2.13;;;;;;;-6.78;100.00;94630.66;2097803;28;20408;-84
2022/01/14 05:02:40;;;;;;;2.95;2.10;;;;;;;-6.70;100.00;94624.13;2094313;28;20028;-84
2022/01/14 05:03:41;;;;;;;4.80;2.58;;;;;;;-6.74;100.00;94616.09;2092507;28;20048;-84
2022/01/14 05:04:44;;;;;;;2.42;2.03;;;;;;;-6.77;100.00;94614.00;2097437;28;20043;-84
2022/01/14 05:05:48;;;;;;;2.78;2.08;;;;;;;-6.73;100.00;94615.03;2098038;28;20459;-84
2022/01/14 05:06:56;;;;;;;3.13;2.00;;;;;;;-6.77;100.00;94614.00;2097914;28;20028;-84
2022/01/14 05:07:58;;;;;;;3.22;1.98;;;;;;;-6.78;100.00;94617.66;2091083;28;20052;-84
2022/01/14 05:08:59;;;;;;;3.78;2.08;;;;;;;-6.75;100.00;94604.13;2106143;28;20028;-84
2022/01/14 05:12:18;;;;;;;1.98;1.40;;;;;;;-6.88;100.00;94615.91;2105836;28;20423;-83
2022/01/14 05:13:24;;;;;;;1.48;1.38;;;;;;;-6.82;100.00;94619.25;2091319;28;20033;-84
2022/01/14 05:14:24;;;;;;;3.20;1.80;;;;;;;-6.81;100.00;94613.00;2093293;28;20064;-84
2022/01/14 05:15:25;;;;;;;5.85;1.90;;;;;;;-6.86;100.00;94602.63;2094567;28;20025;-84
2022/01/14 05:16:26;;;;;;;4.03;2.00;;;;;;;-6.79;100.00;94608.31;2097683;28;20062;-83
2022/01/14 05:17:27;;;;;;;3.88;1.70;;;;;;;-6.82;100.00;94614.06;2114038;28;20062;-83
2022/01/14 05:18:30;;;;;;;2.78;1.60;;;;;;;-6.71;100.00;94610.34;2122602;27;20450;-83
2022/01/14 05:19:31;;;;;;;4.57;1.95;;;;;;;-6.72;100.00;94605.41;2101137;28;20079;-84
2022/01/14 05:20:32;;;;;;;3.83;2.03;;;;;;;-6.64;100.00;94597.81;2089251;28;20059;-84
2022/01/14 05:21:33;;;;;;;3.22;1.80;;;;;;;-6.71;100.00;94599.97;2105831;28;20035;-84
2022/01/14 05:22:34;;;;;;;2.95;1.90;;;;;;;-6.69;100.00;94594.47;2093308;28;20469;-84
2022/01/14 05:23:38;;;;;;;2.72;1.70;;;;;;;-6.77;100.00;94595.03;2097568;28;20031;-84
2022/01/14 05:24:40;;;;;;;3.22;1.75;;;;;;;-6.86;100.00;94598.22;2106181;28;20031;-84